Time;durP1;ratioP1;P1;durP2;ratioP2;P2;SDS_P1;SDS_P2;PMS_P1;PMS_P2;Temp;Humidity;BMP_temperature;BMP_pressure;BME280_temperature;BME280_humidity;BME280_pressure;Samples;Min_cycle;Max_cycle;Signal;HPM_P1;HPM_P2
2021/12/06 00:00:27;;;;;;;175.17;162.77;;;5.20;99.90;;;;;;5061348;28;20834;-82
2021/12/06 00:02:56;;;;;;;175.70;163.50;;;5.20;99.90;;;;;;5060574;28;20565;-81
2021/12/06 00:05:25;;;;;;;177.40;165.07;;;5.20;99.90;;;;;;5059831;28;20256;-82
2021/12/06 00:07:51;;;;;;;174.50;162.40;;;5.20;99.90;;;;;;5060524;28;20548;-82
2021/12/06 00:10:17;;;;;;;176.87;164.20;;;5.20;99.90;;;;;;5049705;28;20742;-80
2021/12/06 00:12:43;;;;;;;173.83;161.43;;;5.20;99.90;;;;;;5061160;28;20269;-82
2021/12/06 00:15:12;;;;;;;175.97;163.60;;;5.20;99.90;;;;;;5060061;28;20193;-81
2021/12/06 00:17:38;;;;;;;174.43;162.30;;;5.10;99.90;;;;;;5060594;28;20203;-80
2021/12/06 00:20:07;;;;;;;179.27;166.77;;;5.10;99.90;;;;;;5049384;28;20217;-80
2021/12/06 00:22:32;;;;;;;173.33;161.23;;;5.10;99.90;;;;;;5060607;28;20243;-81
2021/12/06 00:24:58;;;;;;;176.07;163.90;;;5.20;99.90;;;;;;5067466;28;20237;-82
2021/12/06 00:27:25;;;;;;;175.00;162.93;;;5.20;99.90;;;;;;5061102;28;20245;-80
2021/12/06 00:29:50;;;;;;;175.50;162.73;;;5.20;99.90;;;;;;5069734;28;20178;-81
2021/12/06 00:32:17;;;;;;;173.57;161.53;;;5.20;99.90;;;;;;5048711;28;20193;-81
2021/12/06 00:34:43;;;;;;;170.67;158.87;;;5.20;99.90;;;;;;5080509;28;20205;-81
2021/12/06 00:37:30;;;;;;;173.70;161.43;;;5.30;99.90;;;;;;5062887;28;20258;-81
2021/12/06 00:40:06;;;;;;;173.60;161.37;;;5.30;99.90;;;;;;5052053;28;20284;-81
2021/12/06 00:42:33;;;;;;;169.60;157.40;;;5.30;99.90;;;;;;5063777;28;20559;-81
2021/12/06 00:45:00;;;;;;;170.37;158.33;;;5.30;99.90;;;;;;5064408;28;20198;-81
2021/12/06 00:47:26;;;;;;;170.47;158.40;;;5.40;99.90;;;;;;5064211;28;20722;-82
2021/12/06 00:49:52;;;;;;;170.30;158.17;;;5.30;99.90;;;;;;5069664;28;20206;-79
2021/12/06 00:52:19;;;;;;;172.17;160.07;;;5.30;99.90;;;;;;5063664;28;20263;-81
2021/12/06 00:54:46;;;;;;;170.87;158.67;;;5.30;99.90;;;;;;5062397;28;20284;-81
2021/12/06 00:57:13;;;;;;;167.77;156.17;;;5.20;99.90;;;;;;5079468;28;20204;-80
2021/12/06 00:59:39;;;;;;;170.00;158.17;;;5.30;99.90;;;;;;5053379;28;20193;-79
2021/12/06 01:02:06;;;;;;;172.30;160.00;;;5.30;99.90;;;;;;5053384;28;20185;-80
2021/12/06 01:04:34;;;;;;;175.47;162.67;;;5.30;99.90;;;;;;5064273;28;20228;-79
2021/12/06 01:07:01;;;;;;;169.87;157.57;;;5.30;99.90;;;;;;5066042;28;20196;-82
2021/12/06 01:09:27;;;;;;;171.17;159.17;;;5.30;99.90;;;;;;5052519;28;20189;-81
2021/12/06 01:11:52;;;;;;;169.07;157.00;;;5.30;99.90;;;;;;5063189;28;20212;-82
2021/12/06 01:14:19;;;;;;;171.10;158.90;;;5.40;99.90;;;;;;5047857;28;20198;-81
2021/12/06 01:16:47;;;;;;;173.83;161.33;;;5.40;99.90;;;;;;5064775;28;20205;-80
2021/12/06 01:19:12;;;;;;;172.17;159.57;;;5.40;99.90;;;;;;5064071;28;20213;-80
2021/12/06 01:24:04;;;;;;;173.77;161.10;;;5.50;99.90;;;;;;5063204;28;20213;-80
2021/12/06 01:31:49;;;;;;;172.43;160.13;;;5.50;99.90;;;;;;5063201;28;20543;-81
2021/12/06 01:39:42;;;;;;;172.47;160.03;;;5.50;99.90;;;;;;5062580;28;20197;-81
2021/12/06 01:42:09;;;;;;;167.90;155.87;;;5.40;99.90;;;;;;5046405;28;20177;-82
2021/12/06 01:44:38;;;;;;;171.17;159.10;;;5.40;99.90;;;;;;5057417;28;20275;-80
2021/12/06 01:47:15;;;;;;;171.30;158.70;;;5.40;99.90;;;;;;5063809;28;20862;-81
2021/12/06 01:49:44;;;;;;;168.77;156.27;;;5.40;99.90;;;;;;5068906;28;20320;-81
2021/12/06 01:52:16;;;;;;;171.10;157.97;;;5.50;99.90;;;;;;5062910;28;20266;-81
2021/12/06 01:54:43;;;;;;;167.40;155.53;;;5.50;99.90;;;;;;5064335;28;20242;-79
2021/12/06 01:57:09;;;;;;;170.10;157.83;;;5.50;99.90;;;;;;5065045;28;20185;-80
2021/12/06 01:59:35;;;;;;;169.47;157.23;;;5.60;99.90;;;;;;5050767;28;20668;-81
2021/12/06 02:02:03;;;;;;;171.33;158.47;;;5.50;99.90;;;;;;5069756;28;21197;-81
2021/12/06 02:04:32;;;;;;;169.87;157.47;;;5.50;99.90;;;;;;5067927;28;20287;-81
2021/12/06 02:06:59;;;;;;;170.50;158.00;;;5.50;99.90;;;;;;5048577;28;20542;-81
2021/12/06 02:09:27;;;;;;;169.63;157.03;;;5.50;99.90;;;;;;5052146;28;20199;-81
2021/12/06 02:11:54;;;;;;;170.27;157.63;;;5.50;99.90;;;;;;5054920;28;20216;-81
2021/12/06 02:17:07;;;;;;;172.07;159.70;;;5.50;99.90;;;;;;5066855;28;20255;-81
2021/12/06 02:19:39;;;;;;;172.93;160.43;;;5.50;99.90;;;;;;5064448;28;20189;-82
2021/12/06 02:22:06;;;;;;;170.83;158.37;;;5.40;99.90;;;;;;5064628;28;20186;-82
2021/12/06 02:24:34;;;;;;;173.77;161.03;;;5.50;99.90;;;;;;5068129;28;20213;-81
2021/12/06 02:27:00;;;;;;;170.90;158.10;;;5.50;99.90;;;;;;5064391;28;20185;-81
2021/12/06 02:29:27;;;;;;;171.67;159.13;;;5.50;99.90;;;;;;5065055;28;20185;-82
2021/12/06 02:31:53;;;;;;;171.17;158.40;;;5.50;99.90;;;;;;5078895;28;20186;-81
2021/12/06 02:34:19;;;;;;;171.47;158.77;;;5.50;99.90;;;;;;5064662;28;20212;-82
2021/12/06 02:36:46;;;;;;;170.77;158.50;;;5.40;99.90;;;;;;5068289;28;20206;-82
2021/12/06 02:39:20;;;;;;;170.43;157.97;;;5.40;99.90;;;;;;5050764;28;20555;-82
2021/12/06 02:41:48;;;;;;;168.47;156.50;;;5.40;99.90;;;;;;5053685;28;20193;-83
2021/12/06 02:44:18;;;;;;;169.37;156.97;;;5.50;99.90;;;;;;5069196;28;20244;-81
2021/12/06 02:46:43;;;;;;;168.10;155.70;;;5.50;99.90;;;;;;5068937;28;20281;-82
2021/12/06 02:49:09;;;;;;;165.73;153.50;;;5.50;99.90;;;;;;5068134;28;20700;-82
2021/12/06 02:51:35;;;;;;;170.67;158.33;;;5.60;99.90;;;;;;5046226;28;20653;-82
2021/12/06 02:54:01;;;;;;;166.17;153.87;;;5.50;99.90;;;;;;5051086;28;20671;-82
2021/12/06 02:59:11;;;;;;;167.97;155.63;;;5.60;99.90;;;;;;5068186;28;20193;-82
2021/12/06 03:01:47;;;;;;;164.30;152.20;;;5.60;99.90;;;;;;5045373;28;20543;-81
2021/12/06 03:04:14;;;;;;;170.23;157.90;;;5.60;99.90;;;;;;5066966;28;20208;-81
2021/12/06 03:06:41;;;;;;;169.07;156.33;;;5.60;99.90;;;;;;5050922;28;20185;-82
2021/12/06 03:09:29;;;;;;;167.87;155.07;;;5.60;99.90;;;;;;5062690;28;20189;-81
2021/12/06 03:12:11;;;;;;;165.43;153.20;;;5.50;99.90;;;;;;5084156;28;20174;-81
2021/12/06 03:14:42;;;;;;;164.13;152.03;;;5.50;99.90;;;;;;5063057;28;20276;-81
2021/12/06 03:17:12;;;;;;;165.80;153.23;;;5.50;99.90;;;;;;5061171;28;20190;-82
2021/12/06 03:19:38;;;;;;;167.17;154.80;;;5.50;99.90;;;;;;5065297;28;20186;-82
2021/12/06 03:22:07;;;;;;;164.10;151.97;;;5.50;99.90;;;;;;5050712;28;20193;-82
2021/12/06 03:24:33;;;;;;;167.63;154.80;;;5.40;99.90;;;;;;5061664;28;20372;-82
2021/12/06 03:26:59;;;;;;;164.93;152.80;;;5.40;99.90;;;;;;5066519;28;20285;-81
2021/12/06 03:29:27;;;;;;;166.90;154.70;;;5.40;99.90;;;;;;5062611;28;20218;-80
2021/12/06 03:31:53;;;;;;;164.67;152.30;;;5.40;99.90;;;;;;5045031;28;20192;-80
2021/12/06 03:34:20;;;;;;;164.47;152.57;;;5.50;99.90;;;;;;5069077;28;20209;-81
2021/12/06 03:36:46;;;;;;;167.47;154.73;;;5.40;99.90;;;;;;5052065;28;20214;-82
2021/12/06 03:39:29;;;;;;;164.67;152.37;;;5.50;99.90;;;;;;5028250;28;20304;-82
2021/12/06 03:41:58;;;;;;;167.03;154.43;;;5.40;99.90;;;;;;5062497;28;20238;-82
2021/12/06 03:44:24;;;;;;;164.03;151.97;;;5.40;99.90;;;;;;5067695;28;20567;-81
2021/12/06 03:46:55;;;;;;;163.77;151.43;;;5.40;99.90;;;;;;5050748;28;20240;-81
2021/12/06 03:49:21;;;;;;;164.60;152.30;;;5.40;99.90;;;;;;5061409;28;20213;-80
2021/12/06 03:51:47;;;;;;;164.13;151.83;;;5.20;99.90;;;;;;5050735;28;20538;-82
2021/12/06 03:54:19;;;;;;;165.20;152.93;;;5.20;99.90;;;;;;5051073;28;20237;-83
2021/12/06 03:56:45;;;;;;;166.10;153.47;;;5.20;99.90;;;;;;5085181;28;20753;-82
2021/12/06 03:59:11;;;;;;;165.40;152.90;;;5.20;99.90;;;;;;5049443;28;20667;-80
2021/12/06 04:01:37;;;;;;;165.37;152.83;;;5.10;99.90;;;;;;5034222;28;20190;-82
2021/12/06 04:04:04;;;;;;;162.70;150.50;;;5.10;99.90;;;;;;5066304;28;20236;-81
2021/12/06 04:06:31;;;;;;;161.40;149.37;;;5.10;99.90;;;;;;5036724;28;20264;-80
2021/12/06 04:08:56;;;;;;;163.67;151.50;;;5.00;99.90;;;;;;5038109;28;20591;-82
2021/12/06 04:11:22;;;;;;;163.37;150.60;;;5.00;99.90;;;;;;5069614;28;20186;-82
2021/12/06 04:13:48;;;;;;;167.57;154.67;;;5.00;99.90;;;;;;5053087;28;20704;-79
2021/12/06 04:16:14;;;;;;;173.07;159.53;;;4.90;99.90;;;;;;5071370;28;20208;-82
2021/12/06 04:18:40;;;;;;;167.07;153.87;;;4.80;99.90;;;;;;5069383;28;20210;-82
2021/12/06 04:21:06;;;;;;;168.47;155.60;;;4.80;99.90;;;;;;5070541;28;20277;-82
2021/12/06 04:23:34;;;;;;;173.90;160.67;;;4.70;99.90;;;;;;5036679;28;20268;-81
2021/12/06 04:26:00;;;;;;;173.97;160.27;;;4.70;99.90;;;;;;5068126;28;20276;-82
2021/12/06 04:28:29;;;;;;;177.03;162.33;;;4.70;99.90;;;;;;5066585;28;20185;-80
2021/12/06 04:30:56;;;;;;;176.57;161.23;;;4.70;99.90;;;;;;5066478;28;20178;-81
2021/12/06 04:33:21;;;;;;;172.13;157.37;;;4.70;99.90;;;;;;5054748;28;20528;-81
2021/12/06 04:35:47;;;;;;;175.03;160.10;;;4.80;99.90;;;;;;5070616;28;20214;-81
2021/12/06 04:38:13;;;;;;;176.10;161.27;;;4.80;99.90;;;;;;5053154;28;20688;-82
2021/12/06 04:40:40;;;;;;;176.17;161.47;;;4.90;99.90;;;;;;5054780;28;20422;-82
2021/12/06 04:43:05;;;;;;;176.73;162.10;;;5.00;99.90;;;;;;5053593;28;20200;-81
2021/12/06 04:45:31;;;;;;;174.10;158.57;;;5.00;99.90;;;;;;5066786;28;20198;-82
2021/12/06 04:47:57;;;;;;;172.27;157.80;;;5.00;99.90;;;;;;5054232;28;20207;-81
2021/12/06 04:50:28;;;;;;;172.67;157.70;;;5.10;99.90;;;;;;5047964;28;20285;-81
2021/12/06 04:52:56;;;;;;;173.67;158.80;;;5.20;99.90;;;;;;5065484;28;20213;-81
2021/12/06 04:55:34;;;;;;;167.23;153.17;;;5.10;99.90;;;;;;5065545;28;20177;-81
2021/12/06 04:58:03;;;;;;;168.07;154.13;;;5.20;99.90;;;;;;5063995;28;20185;-81
2021/12/06 05:00:33;;;;;;;164.70;151.27;;;5.10;99.90;;;;;;5065252;28;20190;-81
2021/12/06 05:02:59;;;;;;;166.30;152.70;;;5.10;99.90;;;;;;5070164;28;20181;-81
2021/12/06 05:05:40;;;;;;;166.50;152.83;;;5.10;99.90;;;;;;5063236;28;20310;-82
2021/12/06 05:08:23;;;;;;;169.13;154.63;;;5.20;99.90;;;;;;5069050;28;20730;-82
2021/12/06 05:10:50;;;;;;;163.10;149.73;;;5.20;99.90;;;;;;5064033;28;20769;-81
2021/12/06 05:13:16;;;;;;;166.03;151.57;;;5.20;99.90;;;;;;5069190;28;20210;-81
2021/12/06 05:15:43;;;;;;;164.93;151.60;;;5.20;99.90;;;;;;5062051;28;20266;-81
2021/12/06 05:18:09;;;;;;;164.83;151.43;;;5.20;99.90;;;;;;5037318;28;20189;-81
2021/12/06 05:20:35;;;;;;;162.73;149.70;;;5.10;99.90;;;;;;5068947;28;20577;-80
2021/12/06 05:23:03;;;;;;;165.73;151.97;;;5.10;99.90;;;;;;5053949;28;20201;-82
2021/12/06 05:25:29;;;;;;;163.27;149.67;;;5.10;99.90;;;;;;5064264;28;20205;-82
2021/12/06 05:27:54;;;;;;;163.07;150.17;;;5.20;99.90;;;;;;5048308;28;20251;-82
2021/12/06 05:30:22;;;;;;;163.03;149.07;;;5.20;99.90;;;;;;5051601;28;20186;-82
2021/12/06 05:32:48;;;;;;;163.40;149.03;;;5.40;99.90;;;;;;5054541;28;20190;-81
2021/12/06 05:35:15;;;;;;;162.77;149.30;;;5.40;99.90;;;;;;5052946;28;20205;-81
2021/12/06 05:37:48;;;;;;;164.93;151.60;;;5.40;99.90;;;;;;5064690;28;20224;-80
2021/12/06 05:40:18;;;;;;;160.40;146.93;;;5.40;99.90;;;;;;5064565;28;20273;-83
2021/12/06 05:42:45;;;;;;;159.67;146.17;;;5.50;99.90;;;;;;5063726;28;20309;-81
2021/12/06 05:45:14;;;;;;;160.87;147.63;;;5.40;99.90;;;;;;5065530;28;20277;-82
2021/12/06 05:47:40;;;;;;;164.80;151.03;;;5.40;99.90;;;;;;5065088;28;20181;-82
2021/12/06 05:50:06;;;;;;;165.33;151.30;;;5.40;99.90;;;;;;5063624;28;20201;-82
2021/12/06 05:52:32;;;;;;;166.73;152.87;;;5.40;99.90;;;;;;5062905;28;20179;-83
2021/12/06 05:54:58;;;;;;;162.73;149.23;;;5.40;99.90;;;;;;5053629;28;20190;-80
2021/12/06 05:57:24;;;;;;;160.27;147.00;;;5.40;99.90;;;;;;5028698;28;20193;-81
2021/12/06 05:59:50;;;;;;;162.97;149.80;;;5.50;99.90;;;;;;5053509;28;20178;-82
2021/12/06 06:02:17;;;;;;;164.60;151.40;;;5.50;99.90;;;;;;5064858;28;20189;-81
2021/12/06 06:04:43;;;;;;;160.83;147.93;;;5.50;99.90;;;;;;5062470;28;20226;-81
2021/12/06 06:07:09;;;;;;;161.50;148.00;;;5.40;99.90;;;;;;5055179;28;20598;-81
2021/12/06 06:09:35;;;;;;;161.57;148.27;;;5.30;99.90;;;;;;5065160;28;20185;-82
2021/12/06 06:12:03;;;;;;;157.83;145.03;;;5.20;99.90;;;;;;5047741;28;20225;-81
2021/12/06 06:14:29;;;;;;;158.10;145.47;;;5.10;99.90;;;;;;5068919;28;20193;-81
2021/12/06 06:16:56;;;;;;;159.03;146.23;;;5.10;99.90;;;;;;5050764;28;20239;-81
2021/12/06 06:19:24;;;;;;;160.47;147.53;;;5.00;99.90;;;;;;5064638;28;20288;-82
2021/12/06 06:21:51;;;;;;;157.47;145.10;;;5.00;99.90;;;;;;5069270;28;20267;-81
2021/12/06 06:24:17;;;;;;;161.43;147.93;;;4.90;99.90;;;;;;5035970;28;20240;-82
2021/12/06 06:26:45;;;;;;;158.77;145.17;;;4.90;99.90;;;;;;5063572;28;20173;-82
2021/12/06 06:29:11;;;;;;;157.57;144.40;;;4.90;99.90;;;;;;5065474;28;20452;-82
2021/12/06 06:31:39;;;;;;;160.40;147.13;;;4.90;99.90;;;;;;5065674;28;20182;-83
2021/12/06 06:34:05;;;;;;;159.10;145.10;;;4.90;99.90;;;;;;5063654;28;20515;-81
2021/12/06 06:36:31;;;;;;;157.20;144.00;;;4.90;99.90;;;;;;5063203;28;20271;-82
2021/12/06 06:38:57;;;;;;;157.47;144.10;;;4.80;99.90;;;;;;5064396;28;20202;-81
2021/12/06 06:41:22;;;;;;;158.53;145.37;;;4.80;99.90;;;;;;5069212;28;20193;-82
2021/12/06 06:43:49;;;;;;;161.23;146.93;;;4.80;99.90;;;;;;5045971;28;20218;-83
2021/12/06 06:46:15;;;;;;;160.67;147.70;;;4.80;99.90;;;;;;5062476;28;20237;-82
2021/12/06 06:48:40;;;;;;;164.17;150.53;;;4.70;99.90;;;;;;5065823;28;20209;-83
2021/12/06 06:51:06;;;;;;;162.93;148.57;;;4.70;99.90;;;;;;5063996;28;20230;-81
2021/12/06 06:53:32;;;;;;;162.40;148.93;;;4.70;99.90;;;;;;5050983;28;20228;-81
2021/12/06 06:55:58;;;;;;;161.47;145.97;;;4.70;99.90;;;;;;5032841;28;20269;-81
2021/12/06 06:58:24;;;;;;;171.50;149.10;;;4.60;99.90;;;;;;5032165;28;20275;-82
2021/12/06 07:00:50;;;;;;;165.07;147.63;;;4.50;99.90;;;;;;5050131;28;20192;-82
2021/12/06 07:03:16;;;;;;;176.33;149.50;;;4.50;99.90;;;;;;5079443;28;20193;-82
2021/12/06 07:05:41;;;;;;;196.87;148.63;;;4.40;99.90;;;;;;5060605;28;20233;-82
2021/12/06 07:08:08;;;;;;;169.20;151.43;;;4.40;99.90;;;;;;5060977;28;20231;-81
2021/12/06 07:10:33;;;;;;;164.60;149.50;;;4.40;99.90;;;;;;5048265;28;20182;-82
2021/12/06 07:13:03;;;;;;;164.03;149.63;;;4.40;99.90;;;;;;5066906;28;20195;-81
2021/12/06 07:15:32;;;;;;;167.63;150.50;;;4.40;99.90;;;;;;5033907;28;20190;-82
2021/12/06 07:17:59;;;;;;;165.83;150.07;;;4.40;99.90;;;;;;5064451;28;20277;-83
2021/12/06 07:20:25;;;;;;;168.70;150.77;;;4.40;99.90;;;;;;5068510;28;20603;-81
2021/12/06 07:22:53;;;;;;;165.40;149.93;;;4.40;99.90;;;;;;5049927;28;20189;-83
2021/12/06 07:25:21;;;;;;;165.63;150.40;;;4.30;99.90;;;;;;5059888;28;20206;-82
2021/12/06 07:27:48;;;;;;;163.83;148.23;;;4.30;99.90;;;;;;5065911;28;20205;-82
2021/12/06 07:30:15;;;;;;;167.00;151.57;;;4.30;99.90;;;;;;5062446;28;20264;-82
2021/12/06 07:32:42;;;;;;;169.17;152.67;;;4.20;99.90;;;;;;5051339;28;20671;-83
2021/12/06 07:35:09;;;;;;;168.50;152.57;;;4.30;99.90;;;;;;5050789;28;20672;-83
2021/12/06 07:37:35;;;;;;;165.60;149.63;;;4.20;99.90;;;;;;5067847;28;20593;-82
2021/12/06 07:40:03;;;;;;;166.00;151.63;;;4.20;99.90;;;;;;5068042;28;20241;-81
2021/12/06 07:42:28;;;;;;;166.73;152.17;;;4.30;99.90;;;;;;5066505;28;20193;-82
2021/12/06 07:44:55;;;;;;;169.80;154.53;;;4.30;99.90;;;;;;5055690;28;20213;-79
2021/12/06 07:47:21;;;;;;;167.50;153.20;;;4.40;99.90;;;;;;5072291;28;20193;-83
2021/12/06 07:49:47;;;;;;;168.87;153.93;;;4.40;99.90;;;;;;5065554;28;20585;-82
2021/12/06 07:52:13;;;;;;;166.13;151.00;;;4.50;99.90;;;;;;5039899;28;20220;-83
2021/12/06 07:54:40;;;;;;;164.20;149.73;;;4.50;99.90;;;;;;5068744;28;20221;-84
2021/12/06 07:57:06;;;;;;;163.77;148.87;;;4.50;99.90;;;;;;5057842;28;20194;-84
2021/12/06 07:59:34;;;;;;;165.80;150.83;;;4.50;99.90;;;;;;5066017;28;20368;-84
2021/12/06 08:02:00;;;;;;;166.83;152.07;;;4.50;99.90;;;;;;5057498;28;20186;-83
2021/12/06 08:04:26;;;;;;;165.43;150.37;;;4.50;99.90;;;;;;5069214;28;20256;-83
2021/12/06 08:06:52;;;;;;;166.80;151.87;;;4.50;99.90;;;;;;5067757;28;20655;-84
2021/12/06 08:09:18;;;;;;;166.07;150.80;;;4.50;99.90;;;;;;5055282;28;20184;-83
2021/12/06 08:11:44;;;;;;;166.70;151.30;;;4.50;99.90;;;;;;5073087;28;20269;-83
2021/12/06 08:14:09;;;;;;;167.30;152.20;;;4.60;99.90;;;;;;5067770;28;20281;-83
2021/12/06 08:16:40;;;;;;;165.10;150.63;;;4.60;99.90;;;;;;5056701;28;20186;-84
2021/12/06 08:19:10;;;;;;;165.87;150.83;;;4.60;99.90;;;;;;5065701;28;20613;-84
2021/12/06 08:21:36;;;;;;;167.77;152.37;;;4.60;99.90;;;;;;5054532;28;20658;-81
2021/12/06 08:24:03;;;;;;;168.87;153.13;;;4.60;99.90;;;;;;5072786;28;20262;-81
2021/12/06 08:26:33;;;;;;;167.77;152.13;;;4.60;99.90;;;;;;5056158;28;20228;-83
2021/12/06 08:29:02;;;;;;;169.80;154.00;;;4.60;99.90;;;;;;5066044;28;20181;-82
2021/12/06 08:31:29;;;;;;;170.93;154.97;;;4.70;99.90;;;;;;5065489;28;20183;-81
2021/12/06 08:33:55;;;;;;;171.93;155.30;;;4.70;99.90;;;;;;5056820;28;20210;-83
2021/12/06 08:36:22;;;;;;;170.43;154.40;;;4.80;99.90;;;;;;5057043;28;20275;-82
2021/12/06 08:38:48;;;;;;;173.23;156.80;;;4.80;99.90;;;;;;5064986;28;20564;-83
2021/12/06 08:41:18;;;;;;;175.33;158.53;;;4.70;99.90;;;;;;5071907;28;20660;-83
2021/12/06 08:43:46;;;;;;;169.07;153.40;;;4.70;99.90;;;;;;5066740;28;20202;-81
2021/12/06 08:46:27;;;;;;;171.27;155.07;;;4.70;99.90;;;;;;5087498;28;20192;-81
2021/12/06 08:48:54;;;;;;;167.57;151.63;;;4.70;99.90;;;;;;5072819;28;20243;-82
2021/12/06 08:51:32;;;;;;;168.43;151.87;;;4.70;99.90;;;;;;5070928;28;20607;-82
2021/12/06 08:54:00;;;;;;;170.87;154.17;;;4.70;99.90;;;;;;5064828;28;20225;-81
2021/12/06 08:56:27;;;;;;;173.73;157.67;;;4.70;99.90;;;;;;5080769;28;20191;-82
2021/12/06 08:58:53;;;;;;;171.80;155.53;;;4.80;99.90;;;;;;5054416;28;20185;-82
2021/12/06 09:01:19;;;;;;;167.87;151.70;;;4.70;99.90;;;;;;5035822;28;20181;-81
2021/12/06 09:03:45;;;;;;;171.53;154.77;;;4.70;99.90;;;;;;5063967;28;20221;-81
2021/12/06 09:06:11;;;;;;;171.33;154.67;;;4.70;99.90;;;;;;5054020;28;20247;-82
2021/12/06 09:08:40;;;;;;;169.10;151.90;;;4.70;99.90;;;;;;5049557;28;20182;-82
2021/12/06 09:11:06;;;;;;;164.37;148.20;;;4.70;99.90;;;;;;5059866;28;20178;-83
2021/12/06 09:13:33;;;;;;;173.00;155.83;;;4.70;99.90;;;;;;5035088;28;20281;-82
2021/12/06 09:16:01;;;;;;;168.87;153.10;;;4.70;99.90;;;;;;5067672;28;20205;-82
2021/12/06 09:18:34;;;;;;;167.63;151.90;;;4.60;99.90;;;;;;5068183;28;20193;-81
2021/12/06 09:21:00;;;;;;;166.50;150.33;;;4.70;99.90;;;;;;5051235;28;20277;-81
2021/12/06 09:23:26;;;;;;;164.77;148.87;;;4.60;99.90;;;;;;5050828;28;20196;-80
2021/12/06 09:25:52;;;;;;;161.93;146.53;;;4.60;99.90;;;;;;5061589;28;20181;-82
2021/12/06 09:28:18;;;;;;;163.07;147.70;;;4.60;99.90;;;;;;5047434;28;20178;-82
2021/12/06 09:30:45;;;;;;;164.00;147.97;;;4.60;99.90;;;;;;5069350;28;20300;-81
2021/12/06 09:33:13;;;;;;;168.17;151.20;;;4.50;99.90;;;;;;5078327;28;20917;-81
2021/12/06 09:35:43;;;;;;;164.37;148.17;;;4.60;99.90;;;;;;5064468;28;20831;-82
2021/12/06 09:38:11;;;;;;;163.67;147.93;;;4.60;99.90;;;;;;5063953;28;20196;-82
2021/12/06 09:40:40;;;;;;;163.10;148.03;;;4.60;99.90;;;;;;5066777;28;20205;-81
2021/12/06 09:43:10;;;;;;;158.53;143.23;;;4.60;99.90;;;;;;5069083;28;20190;-82
2021/12/06 09:45:37;;;;;;;164.57;148.27;;;4.60;99.90;;;;;;5064849;28;20243;-80
2021/12/06 09:48:04;;;;;;;165.10;149.43;;;4.60;99.90;;;;;;5050274;28;20187;-81
2021/12/06 09:50:38;;;;;;;161.07;146.00;;;4.50;99.90;;;;;;5053296;28;20205;-82
2021/12/06 09:53:07;;;;;;;161.57;145.63;;;4.50;99.90;;;;;;5086127;28;20677;-82
2021/12/06 09:55:33;;;;;;;160.43;144.97;;;4.60;99.90;;;;;;5048523;28;20201;-82
2021/12/06 09:58:00;;;;;;;155.23;141.60;;;4.60;99.90;;;;;;5051517;28;20190;-82
2021/12/06 10:00:29;;;;;;;158.70;143.93;;;4.50;99.90;;;;;;5046337;28;20277;-82
2021/12/06 10:02:55;;;;;;;151.57;137.77;;;4.50;99.90;;;;;;5068930;28;20273;-81
2021/12/06 10:05:26;;;;;;;151.10;137.37;;;4.50;99.90;;;;;;5069198;28;20312;-81
2021/12/06 10:07:55;;;;;;;146.20;133.77;;;4.50;99.90;;;;;;5064412;28;20186;-81
2021/12/06 10:10:22;;;;;;;146.93;133.53;;;4.50;99.90;;;;;;5061807;28;20183;-82
2021/12/06 10:12:52;;;;;;;149.53;135.00;;;4.50;99.90;;;;;;5062906;28;20174;-81
2021/12/06 10:15:27;;;;;;;149.43;135.87;;;4.50;99.90;;;;;;5069837;28;20701;-82
2021/12/06 10:17:54;;;;;;;145.47;132.53;;;4.60;99.90;;;;;;5063435;28;20274;-81
2021/12/06 10:20:20;;;;;;;145.90;133.10;;;4.70;99.90;;;;;;5052227;28;20213;-81
2021/12/06 10:22:47;;;;;;;144.00;131.50;;;4.70;99.90;;;;;;5052861;28;20561;-82
2021/12/06 10:25:13;;;;;;;144.83;132.27;;;4.90;99.90;;;;;;5052127;28;20213;-82
2021/12/06 10:27:38;;;;;;;140.77;128.53;;;4.90;99.90;;;;;;5064202;28;20665;-82
2021/12/06 10:30:10;;;;;;;142.73;130.17;;;4.90;99.90;;;;;;5036272;28;20271;-83
2021/12/06 10:32:39;;;;;;;140.47;127.43;;;5.00;99.90;;;;;;5084265;28;20177;-83
2021/12/06 10:35:11;;;;;;;141.63;129.40;;;5.10;99.90;;;;;;5065879;28;20612;-81
2021/12/06 10:37:47;;;;;;;136.83;125.00;;;5.10;99.90;;;;;;5061358;28;20613;-82
2021/12/06 10:40:20;;;;;;;137.87;126.30;;;5.10;99.90;;;;;;5083514;28;20185;-82
2021/12/06 10:42:47;;;;;;;139.10;126.73;;;5.10;99.90;;;;;;5069396;28;20185;-82
2021/12/06 10:45:23;;;;;;;137.40;124.97;;;5.10;99.90;;;;;;5051851;28;20220;-83
2021/12/06 10:48:10;;;;;;;140.37;127.87;;;5.10;99.90;;;;;;5062621;28;20181;-83
2021/12/06 10:50:41;;;;;;;139.10;126.80;;;5.00;99.90;;;;;;5063926;28;20201;-82
2021/12/06 10:53:06;;;;;;;137.50;124.97;;;5.00;99.90;;;;;;5068826;28;20650;-82
2021/12/06 10:55:34;;;;;;;136.97;124.87;;;4.90;99.90;;;;;;5063353;28;20275;-83
2021/12/06 10:58:11;;;;;;;135.60;123.97;;;4.90;99.90;;;;;;5063047;28;20539;-83
2021/12/06 11:00:46;;;;;;;137.10;124.63;;;4.90;99.90;;;;;;5063087;28;20219;-83
2021/12/06 11:03:25;;;;;;;133.63;122.13;;;4.90;99.90;;;;;;5059551;28;20197;-83
2021/12/06 11:05:55;;;;;;;135.33;122.80;;;5.00;99.90;;;;;;5060686;28;20252;-82
2021/12/06 11:08:23;;;;;;;133.37;120.37;;;5.10;99.90;;;;;;5082446;28;20185;-82
2021/12/06 11:11:02;;;;;;;133.20;120.57;;;5.00;99.90;;;;;;5061636;28;20189;-81
2021/12/06 11:13:32;;;;;;;132.83;119.43;;;5.00;99.90;;;;;;5066708;28;20216;-83
2021/12/06 11:16:00;;;;;;;135.27;121.83;;;4.90;99.90;;;;;;5063318;28;20189;-83
2021/12/06 11:18:49;;;;;;;132.67;119.87;;;5.00;99.90;;;;;;5062722;28;20673;-83
2021/12/06 11:21:25;;;;;;;124.40;111.87;;;5.00;99.90;;;;;;5062206;28;20281;-83
2021/12/06 11:24:08;;;;;;;122.27;110.83;;;5.10;99.90;;;;;;5063311;28;20215;-84
2021/12/06 11:26:37;;;;;;;122.83;110.80;;;5.20;99.90;;;;;;5063383;28;20191;-83
2021/12/06 11:29:23;;;;;;;114.77;104.13;;;5.30;99.90;;;;;;5063225;28;20694;-83
2021/12/06 11:32:15;;;;;;;113.10;103.37;;;5.30;99.90;;;;;;5058899;28;20539;-81
2021/12/06 11:34:51;;;;;;;115.53;104.87;;;5.30;99.90;;;;;;5062357;28;20223;-83
2021/12/06 11:37:29;;;;;;;112.73;102.53;;;5.20;99.90;;;;;;5064470;28;20648;-83
2021/12/06 11:40:00;;;;;;;111.33;100.83;;;5.20;99.90;;;;;;5062562;28;20276;-83
2021/12/06 11:42:26;;;;;;;113.00;102.47;;;5.20;99.90;;;;;;5061133;28;20638;-82
2021/12/06 11:44:52;;;;;;;113.03;102.33;;;5.20;99.90;;;;;;5063652;28;20274;-82
2021/12/06 11:47:19;;;;;;;110.93;100.37;;;5.20;99.90;;;;;;5061092;28;20234;-83
2021/12/06 11:49:53;;;;;;;110.93;101.10;;;5.30;99.90;;;;;;5064487;28;20206;-84
2021/12/06 11:52:24;;;;;;;113.57;102.30;;;5.30;99.90;;;;;;5067709;28;20173;-82
2021/12/06 11:54:59;;;;;;;114.20;103.27;;;5.20;99.90;;;;;;5067126;28;20550;-82
2021/12/06 11:57:42;;;;;;;105.83;96.03;;;5.20;99.90;;;;;;5051837;28;20225;-81
2021/12/06 12:00:20;;;;;;;108.07;97.77;;;5.20;99.90;;;;;;5062305;28;20192;-82
2021/12/06 12:02:51;;;;;;;105.00;94.57;;;5.20;99.90;;;;;;5061124;28;20657;-82
2021/12/06 12:05:23;;;;;;;105.07;95.57;;;5.20;99.90;;;;;;5058967;28;20217;-82
2021/12/06 12:08:14;;;;;;;105.83;96.27;;;5.20;99.90;;;;;;5068065;28;20681;-83
2021/12/06 12:10:53;;;;;;;103.77;94.10;;;5.20;99.90;;;;;;5062199;28;20178;-84
2021/12/06 12:13:36;;;;;;;101.63;92.60;;;5.20;99.90;;;;;;5062966;28;20175;-83
2021/12/06 12:16:10;;;;;;;99.60;90.63;;;5.10;99.90;;;;;;5066998;28;20193;-83
2021/12/06 12:18:40;;;;;;;99.87;91.13;;;5.10;99.90;;;;;;5062657;28;20782;-82
2021/12/06 12:21:07;;;;;;;94.77;86.73;;;5.20;99.90;;;;;;5066555;28;20647;-83
2021/12/06 12:23:33;;;;;;;93.27;85.47;;;5.20;99.90;;;;;;5051072;28;20220;-84
2021/12/06 12:26:06;;;;;;;89.53;81.97;;;5.20;99.90;;;;;;5064005;28;20753;-84
2021/12/06 12:29:25;;;;;;;93.07;85.23;;;5.20;99.90;;;;;;5064476;28;20190;-83
2021/12/06 12:31:23;;;;;;;92.47;84.67;;;5.10;99.90;;;;;;5056040;28;20276;-82
2021/12/06 12:33:50;;;;;;;93.13;85.33;;;5.10;99.90;;;;;;5071548;28;20510;-83
2021/12/06 12:36:19;;;;;;;89.47;82.13;;;5.20;99.90;;;;;;5064238;28;20206;-83
2021/12/06 12:38:48;;;;;;;88.90;82.03;;;5.20;99.90;;;;;;5063395;28;20297;-83
2021/12/06 12:41:17;;;;;;;88.80;82.27;;;5.20;99.90;;;;;;5064246;28;20643;-82
2021/12/06 12:43:46;;;;;;;87.77;80.87;;;5.10;99.90;;;;;;5063397;28;20663;-82